sensor_id;sensor_type;location;lat;lon;timestamp;P1;durP1;ratioP1;P2;durP2;ratioP2
70981;SDS011;58640;51.320;9.456;2023-04-24T00:00:03;1.13;;;0.70;;
70981;SDS011;58640;51.320;9.456;2023-04-24T00:02:37;1.60;;;0.70;;
70981;SDS011;58640;51.320;9.456;2023-04-24T00:05:04;1.17;;;0.98;;
70981;SDS011;58640;51.320;9.456;2023-04-24T00:07:30;2.70;;;0.80;;
70981;SDS011;58640;51.320;9.456;2023-04-24T00:09:56;1.25;;;0.80;;
70981;SDS011;58640;51.320;9.456;2023-04-24T00:12:22;2.00;;;0.60;;
70981;SDS011;58640;51.320;9.456;2023-04-24T00:14:47;3.05;;;0.85;;
70981;SDS011;58640;51.320;9.456;2023-04-24T00:17:13;1.73;;;0.77;;
70981;SDS011;58640;51.320;9.456;2023-04-24T00:19:38;7.15;;;1.90;;
70981;SDS011;58640;51.320;9.456;2023-04-24T00:22:04;8.82;;;2.47;;
70981;SDS011;58640;51.320;9.456;2023-04-24T00:24:29;2.05;;;1.25;;
70981;SDS011;58640;51.320;9.456;2023-04-24T00:26:54;4.90;;;0.90;;
70981;SDS011;58640;51.320;9.456;2023-04-24T00:29:20;0.70;;;0.70;;
70981;SDS011;58640;51.320;9.456;2023-04-24T00:31:45;0.60;;;0.60;;
70981;SDS011;58640;51.320;9.456;2023-04-24T00:34:10;3.60;;;2.15;;
70981;SDS011;58640;51.320;9.456;2023-04-24T00:36:36;0.95;;;0.77;;
70981;SDS011;58640;51.320;9.456;2023-04-24T00:39:02;1.40;;;1.08;;
70981;SDS011;58640;51.320;9.456;2023-04-24T00:41:27;0.98;;;0.80;;
70981;SDS011;58640;51.320;9.456;2023-04-24T00:43:53;0.73;;;0.70;;
70981;SDS011;58640;51.320;9.456;2023-04-24T00:46:18;1.98;;;0.95;;
70981;SDS011;58640;51.320;9.456;2023-04-24T00:48:44;1.65;;;1.02;;
70981;SDS011;58640;51.320;9.456;2023-04-24T00:51:10;1.63;;;1.08;;
70981;SDS011;58640;51.320;9.456;2023-04-24T00:53:35;2.65;;;0.90;;
70981;SDS011;58640;51.320;9.456;2023-04-24T00:56:01;1.23;;;0.82;;
70981;SDS011;58640;51.320;9.456;2023-04-24T00:58:27;2.25;;;1.13;;
70981;SDS011;58640;51.320;9.456;2023-04-24T01:00:53;1.30;;;0.90;;
70981;SDS011;58640;51.320;9.456;2023-04-24T01:03:21;0.95;;;0.90;;
70981;SDS011;58640;51.320;9.456;2023-04-24T01:05:49;3.70;;;1.33;;
70981;SDS011;58640;51.320;9.456;2023-04-24T01:08:14;1.20;;;1.00;;
70981;SDS011;58640;51.320;9.456;2023-04-24T01:10:40;1.27;;;0.80;;
70981;SDS011;58640;51.320;9.456;2023-04-24T01:13:07;1.13;;;0.80;;
70981;SDS011;58640;51.320;9.456;2023-04-24T01:15:33;2.65;;;1.13;;
70981;SDS011;58640;51.320;9.456;2023-04-24T01:17:59;2.80;;;1.35;;
70981;SDS011;58640;51.320;9.456;2023-04-24T01:20:24;4.22;;;1.10;;
70981;SDS011;58640;51.320;9.456;2023-04-24T01:22:51;0.93;;;0.80;;
70981;SDS011;58640;51.320;9.456;2023-04-24T01:25:17;0.73;;;0.73;;
70981;SDS011;58640;51.320;9.456;2023-04-24T01:27:42;2.97;;;0.80;;
70981;SDS011;58640;51.320;9.456;2023-04-24T01:30:08;3.25;;;0.80;;
70981;SDS011;58640;51.320;9.456;2023-04-24T01:32:34;0.98;;;0.88;;
70981;SDS011;58640;51.320;9.456;2023-04-24T01:35:01;1.10;;;1.00;;
70981;SDS011;58640;51.320;9.456;2023-04-24T01:37:27;1.00;;;0.70;;
70981;SDS011;58640;51.320;9.456;2023-04-24T01:39:52;2.70;;;1.00;;
70981;SDS011;58640;51.320;9.456;2023-04-24T01:42:18;2.35;;;0.85;;
70981;SDS011;58640;51.320;9.456;2023-04-24T01:44:43;2.55;;;0.90;;
70981;SDS011;58640;51.320;9.456;2023-04-24T01:47:09;1.83;;;0.73;;
70981;SDS011;58640;51.320;9.456;2023-04-24T01:49:36;1.35;;;1.05;;
70981;SDS011;58640;51.320;9.456;2023-04-24T01:52:03;2.17;;;0.93;;
70981;SDS011;58640;51.320;9.456;2023-04-24T01:54:28;2.58;;;0.70;;
70981;SDS011;58640;51.320;9.456;2023-04-24T01:56:53;0.75;;;0.75;;
70981;SDS011;58640;51.320;9.456;2023-04-24T01:59:19;1.63;;;0.80;;
70981;SDS011;58640;51.320;9.456;2023-04-24T02:01:46;1.40;;;1.30;;
70981;SDS011;58640;51.320;9.456;2023-04-24T02:04:11;1.45;;;0.77;;
70981;SDS011;58640;51.320;9.456;2023-04-24T02:06:37;1.10;;;1.00;;
70981;SDS011;58640;51.320;9.456;2023-04-24T02:09:02;4.93;;;0.93;;
70981;SDS011;58640;51.320;9.456;2023-04-24T02:11:28;2.20;;;0.90;;
70981;SDS011;58640;51.320;9.456;2023-04-24T02:13:53;0.90;;;0.90;;
70981;SDS011;58640;51.320;9.456;2023-04-24T02:16:19;3.58;;;1.73;;
70981;SDS011;58640;51.320;9.456;2023-04-24T02:18:44;1.48;;;0.98;;
70981;SDS011;58640;51.320;9.456;2023-04-24T02:21:10;1.65;;;0.98;;
70981;SDS011;58640;51.320;9.456;2023-04-24T02:23:36;2.45;;;1.15;;
70981;SDS011;58640;51.320;9.456;2023-04-24T02:26:01;1.35;;;1.23;;
70981;SDS011;58640;51.320;9.456;2023-04-24T02:28:26;2.03;;;1.15;;
70981;SDS011;58640;51.320;9.456;2023-04-24T02:30:52;1.95;;;1.10;;
70981;SDS011;58640;51.320;9.456;2023-04-24T02:33:17;3.25;;;1.38;;
70981;SDS011;58640;51.320;9.456;2023-04-24T02:35:42;2.63;;;1.40;;
70981;SDS011;58640;51.320;9.456;2023-04-24T02:38:08;1.85;;;1.15;;
70981;SDS011;58640;51.320;9.456;2023-04-24T02:40:33;3.50;;;1.60;;
70981;SDS011;58640;51.320;9.456;2023-04-24T02:42:58;2.17;;;1.20;;
70981;SDS011;58640;51.320;9.456;2023-04-24T02:45:24;2.22;;;0.90;;
70981;SDS011;58640;51.320;9.456;2023-04-24T02:47:49;1.52;;;1.05;;
70981;SDS011;58640;51.320;9.456;2023-04-24T02:50:14;1.00;;;0.90;;
70981;SDS011;58640;51.320;9.456;2023-04-24T02:52:40;4.60;;;1.65;;
70981;SDS011;58640;51.320;9.456;2023-04-24T02:55:05;3.20;;;1.00;;
70981;SDS011;58640;51.320;9.456;2023-04-24T02:57:32;1.98;;;1.05;;
70981;SDS011;58640;51.320;9.456;2023-04-24T02:59:58;1.70;;;1.15;;
70981;SDS011;58640;51.320;9.456;2023-04-24T03:02:23;1.30;;;0.93;;
70981;SDS011;58640;51.320;9.456;2023-04-24T03:04:49;1.92;;;0.98;;
70981;SDS011;58640;51.320;9.456;2023-04-24T03:07:14;1.10;;;0.98;;
70981;SDS011;58640;51.320;9.456;2023-04-24T03:09:40;2.15;;;1.42;;
70981;SDS011;58640;51.320;9.456;2023-04-24T03:12:06;0.93;;;0.85;;
70981;SDS011;58640;51.320;9.456;2023-04-24T03:14:31;2.47;;;1.00;;
70981;SDS011;58640;51.320;9.456;2023-04-24T03:16:56;1.60;;;0.90;;
70981;SDS011;58640;51.320;9.456;2023-04-24T03:19:22;2.25;;;1.10;;
70981;SDS011;58640;51.320;9.456;2023-04-24T03:21:47;1.23;;;1.10;;
70981;SDS011;58640;51.320;9.456;2023-04-24T03:24:13;5.60;;;1.13;;
70981;SDS011;58640;51.320;9.456;2023-04-24T03:26:38;1.70;;;0.90;;
70981;SDS011;58640;51.320;9.456;2023-04-24T03:29:04;1.38;;;0.98;;
70981;SDS011;58640;51.320;9.456;2023-04-24T03:31:29;3.95;;;1.10;;
70981;SDS011;58640;51.320;9.456;2023-04-24T03:33:55;4.68;;;0.90;;
70981;SDS011;58640;51.320;9.456;2023-04-24T03:36:20;1.30;;;1.20;;
70981;SDS011;58640;51.320;9.456;2023-04-24T03:38:45;4.20;;;1.35;;
70981;SDS011;58640;51.320;9.456;2023-04-24T03:41:11;1.20;;;1.10;;
70981;SDS011;58640;51.320;9.456;2023-04-24T03:43:36;1.63;;;1.25;;
70981;SDS011;58640;51.320;9.456;2023-04-24T03:46:03;2.05;;;1.23;;
70981;SDS011;58640;51.320;9.456;2023-04-24T03:48:28;1.15;;;0.93;;
70981;SDS011;58640;51.320;9.456;2023-04-24T03:50:54;1.50;;;1.40;;
70981;SDS011;58640;51.320;9.456;2023-04-24T03:53:19;3.80;;;1.48;;
70981;SDS011;58640;51.320;9.456;2023-04-24T03:55:45;2.35;;;1.17;;
70981;SDS011;58640;51.320;9.456;2023-04-24T03:58:10;1.98;;;1.20;;
70981;SDS011;58640;51.320;9.456;2023-04-24T04:00:36;2.03;;;1.20;;
70981;SDS011;58640;51.320;9.456;2023-04-24T04:03:02;1.50;;;1.40;;
70981;SDS011;58640;51.320;9.456;2023-04-24T04:05:28;1.10;;;1.00;;
70981;SDS011;58640;51.320;9.456;2023-04-24T04:07:53;1.60;;;0.90;;
70981;SDS011;58640;51.320;9.456;2023-04-24T04:10:19;1.02;;;0.93;;
70981;SDS011;58640;51.320;9.456;2023-04-24T04:12:44;2.10;;;0.82;;
70981;SDS011;58640;51.320;9.456;2023-04-24T04:15:10;1.30;;;0.90;;
70981;SDS011;58640;51.320;9.456;2023-04-24T04:17:35;1.02;;;0.93;;
70981;SDS011;58640;51.320;9.456;2023-04-24T04:20:00;1.33;;;0.90;;
70981;SDS011;58640;51.320;9.456;2023-04-24T04:22:26;1.42;;;0.90;;
70981;SDS011;58640;51.320;9.456;2023-04-24T04:24:52;1.27;;;1.17;;
70981;SDS011;58640;51.320;9.456;2023-04-24T04:27:17;2.45;;;1.00;;
70981;SDS011;58640;51.320;9.456;2023-04-24T04:29:43;0.82;;;0.82;;
70981;SDS011;58640;51.320;9.456;2023-04-24T04:32:09;1.05;;;1.00;;
70981;SDS011;58640;51.320;9.456;2023-04-24T04:34:34;0.93;;;0.93;;
70981;SDS011;58640;51.320;9.456;2023-04-24T04:37:02;1.08;;;1.05;;
70981;SDS011;58640;51.320;9.456;2023-04-24T04:39:28;1.42;;;1.15;;
70981;SDS011;58640;51.320;9.456;2023-04-24T04:41:54;2.38;;;1.13;;
70981;SDS011;58640;51.320;9.456;2023-04-24T04:44:20;3.53;;;1.30;;
70981;SDS011;58640;51.320;9.456;2023-04-24T04:46:45;1.80;;;1.20;;
70981;SDS011;58640;51.320;9.456;2023-04-24T04:49:11;3.85;;;1.27;;
70981;SDS011;58640;51.320;9.456;2023-04-24T04:51:36;2.58;;;1.25;;
70981;SDS011;58640;51.320;9.456;2023-04-24T04:54:02;3.70;;;1.30;;
70981;SDS011;58640;51.320;9.456;2023-04-24T04:56:27;3.55;;;1.15;;
70981;SDS011;58640;51.320;9.456;2023-04-24T04:58:52;3.10;;;1.10;;
70981;SDS011;58640;51.320;9.456;2023-04-24T05:01:18;4.45;;;1.15;;
70981;SDS011;58640;51.320;9.456;2023-04-24T05:03:43;2.65;;;1.10;;
70981;SDS011;58640;51.320;9.456;2023-04-24T05:06:09;1.25;;;1.10;;
70981;SDS011;58640;51.320;9.456;2023-04-24T05:08:34;0.98;;;0.90;;
70981;SDS011;58640;51.320;9.456;2023-04-24T05:11:00;1.95;;;1.23;;
70981;SDS011;58640;51.320;9.456;2023-04-24T05:13:25;1.02;;;0.80;;
70981;SDS011;58640;51.320;9.456;2023-04-24T05:15:51;4.68;;;1.10;;
70981;SDS011;58640;51.320;9.456;2023-04-24T05:18:16;3.20;;;1.50;;
70981;SDS011;58640;51.320;9.456;2023-04-24T05:20:42;2.10;;;1.10;;
70981;SDS011;58640;51.320;9.456;2023-04-24T05:23:08;2.42;;;1.10;;
70981;SDS011;58640;51.320;9.456;2023-04-24T05:25:34;2.65;;;1.20;;
70981;SDS011;58640;51.320;9.456;2023-04-24T05:28:00;1.00;;;0.82;;
70981;SDS011;58640;51.320;9.456;2023-04-24T05:30:26;1.10;;;1.00;;
70981;SDS011;58640;51.320;9.456;2023-04-24T05:32:52;1.33;;;1.10;;
70981;SDS011;58640;51.320;9.456;2023-04-24T05:35:17;1.13;;;1.05;;
70981;SDS011;58640;51.320;9.456;2023-04-24T05:37:43;1.88;;;1.20;;
70981;SDS011;58640;51.320;9.456;2023-04-24T05:40:09;1.15;;;1.02;;
70981;SDS011;58640;51.320;9.456;2023-04-24T05:42:35;0.90;;;0.90;;
70981;SDS011;58640;51.320;9.456;2023-04-24T05:45:00;2.85;;;1.55;;
70981;SDS011;58640;51.320;9.456;2023-04-24T05:47:26;2.20;;;1.27;;
70981;SDS011;58640;51.320;9.456;2023-04-24T05:49:51;4.78;;;1.08;;
70981;SDS011;58640;51.320;9.456;2023-04-24T05:52:17;2.05;;;1.20;;
70981;SDS011;58640;51.320;9.456;2023-04-24T05:54:42;0.70;;;0.70;;
70981;SDS011;58640;51.320;9.456;2023-04-24T05:57:08;6.75;;;1.40;;
70981;SDS011;58640;51.320;9.456;2023-04-24T05:59:34;1.95;;;1.35;;
70981;SDS011;58640;51.320;9.456;2023-04-24T06:02:01;1.45;;;1.35;;
70981;SDS011;58640;51.320;9.456;2023-04-24T06:04:27;1.40;;;1.30;;
70981;SDS011;58640;51.320;9.456;2023-04-24T06:06:52;2.50;;;2.30;;
70981;SDS011;58640;51.320;9.456;2023-04-24T06:09:21;4.20;;;1.92;;
70981;SDS011;58640;51.320;9.456;2023-04-24T06:11:47;3.10;;;2.10;;
70981;SDS011;58640;51.320;9.456;2023-04-24T06:14:12;3.28;;;1.80;;
70981;SDS011;58640;51.320;9.456;2023-04-24T06:16:37;5.18;;;3.22;;
70981;SDS011;58640;51.320;9.456;2023-04-24T06:19:03;5.32;;;2.67;;
70981;SDS011;58640;51.320;9.456;2023-04-24T06:21:29;2.20;;;2.05;;
70981;SDS011;58640;51.320;9.456;2023-04-24T06:23:54;2.72;;;1.90;;
70981;SDS011;58640;51.320;9.456;2023-04-24T06:26:21;2.38;;;2.13;;
70981;SDS011;58640;51.320;9.456;2023-04-24T06:28:47;2.58;;;2.30;;
70981;SDS011;58640;51.320;9.456;2023-04-24T06:31:12;2.33;;;1.95;;
70981;SDS011;58640;51.320;9.456;2023-04-24T06:33:37;3.53;;;2.22;;
70981;SDS011;58640;51.320;9.456;2023-04-24T06:36:03;2.55;;;2.35;;
70981;SDS011;58640;51.320;9.456;2023-04-24T06:38:29;2.83;;;2.22;;
70981;SDS011;58640;51.320;9.456;2023-04-24T06:40:55;3.95;;;2.53;;
70981;SDS011;58640;51.320;9.456;2023-04-24T06:43:21;3.05;;;2.45;;
70981;SDS011;58640;51.320;9.456;2023-04-24T06:45:46;2.53;;;1.90;;
70981;SDS011;58640;51.320;9.456;2023-04-24T06:48:12;3.08;;;2.53;;
70981;SDS011;58640;51.320;9.456;2023-04-24T06:50:37;7.90;;;2.45;;
70981;SDS011;58640;51.320;9.456;2023-04-24T06:53:02;3.03;;;2.08;;
70981;SDS011;58640;51.320;9.456;2023-04-24T06:55:28;2.72;;;2.40;;
70981;SDS011;58640;51.320;9.456;2023-04-24T06:57:53;4.40;;;2.78;;
70981;SDS011;58640;51.320;9.456;2023-04-24T07:00:19;2.67;;;2.35;;
70981;SDS011;58640;51.320;9.456;2023-04-24T07:02:44;3.30;;;2.88;;
70981;SDS011;58640;51.320;9.456;2023-04-24T07:05:10;5.18;;;1.90;;
70981;SDS011;58640;51.320;9.456;2023-04-24T07:07:35;2.67;;;2.00;;
70981;SDS011;58640;51.320;9.456;2023-04-24T07:10:03;1.98;;;1.88;;
70981;SDS011;58640;51.320;9.456;2023-04-24T07:12:29;2.03;;;1.83;;
70981;SDS011;58640;51.320;9.456;2023-04-24T07:14:54;1.98;;;1.77;;
70981;SDS011;58640;51.320;9.456;2023-04-24T07:17:20;6.07;;;2.55;;
70981;SDS011;58640;51.320;9.456;2023-04-24T07:19:45;1.55;;;1.40;;
70981;SDS011;58640;51.320;9.456;2023-04-24T07:22:11;1.88;;;1.70;;
70981;SDS011;58640;51.320;9.456;2023-04-24T07:24:41;1.65;;;1.50;;
70981;SDS011;58640;51.320;9.456;2023-04-24T07:27:08;1.98;;;1.63;;
70981;SDS011;58640;51.320;9.456;2023-04-24T07:29:33;2.55;;;1.80;;
70981;SDS011;58640;51.320;9.456;2023-04-24T07:31:58;2.00;;;1.83;;
70981;SDS011;58640;51.320;9.456;2023-04-24T07:34:24;2.08;;;1.88;;
70981;SDS011;58640;51.320;9.456;2023-04-24T07:36:49;1.98;;;1.70;;
70981;SDS011;58640;51.320;9.456;2023-04-24T07:39:15;3.78;;;1.90;;
70981;SDS011;58640;51.320;9.456;2023-04-24T07:41:40;2.40;;;1.90;;
70981;SDS011;58640;51.320;9.456;2023-04-24T07:44:06;2.22;;;2.03;;
70981;SDS011;58640;51.320;9.456;2023-04-24T07:46:31;2.35;;;2.15;;
70981;SDS011;58640;51.320;9.456;2023-04-24T07:48:57;1.92;;;1.77;;
70981;SDS011;58640;51.320;9.456;2023-04-24T07:51:24;2.20;;;1.67;;
70981;SDS011;58640;51.320;9.456;2023-04-24T07:53:52;4.07;;;1.75;;
70981;SDS011;58640;51.320;9.456;2023-04-24T07:56:17;6.20;;;1.70;;
70981;SDS011;58640;51.320;9.456;2023-04-24T07:58:43;13.90;;;2.00;;
70981;SDS011;58640;51.320;9.456;2023-04-24T08:01:08;2.58;;;1.80;;
70981;SDS011;58640;51.320;9.456;2023-04-24T08:03:33;1.60;;;1.45;;
70981;SDS011;58640;51.320;9.456;2023-04-24T08:05:59;2.53;;;1.75;;
70981;SDS011;58640;51.320;9.456;2023-04-24T08:08:24;1.85;;;1.67;;
70981;SDS011;58640;51.320;9.456;2023-04-24T08:10:50;3.40;;;1.88;;
70981;SDS011;58640;51.320;9.456;2023-04-24T08:13:15;3.42;;;1.83;;
70981;SDS011;58640;51.320;9.456;2023-04-24T08:15:40;2.30;;;2.10;;
70981;SDS011;58640;51.320;9.456;2023-04-24T08:18:06;2.47;;;2.20;;
70981;SDS011;58640;51.320;9.456;2023-04-24T08:20:32;2.83;;;2.10;;
70981;SDS011;58640;51.320;9.456;2023-04-24T08:22:57;2.25;;;1.70;;
70981;SDS011;58640;51.320;9.456;2023-04-24T08:25:22;3.30;;;2.00;;
70981;SDS011;58640;51.320;9.456;2023-04-24T08:27:49;2.10;;;1.90;;
70981;SDS011;58640;51.320;9.456;2023-04-24T08:30:15;3.17;;;2.50;;
70981;SDS011;58640;51.320;9.456;2023-04-24T08:32:40;2.15;;;1.95;;
70981;SDS011;58640;51.320;9.456;2023-04-24T08:35:06;2.90;;;2.13;;
70981;SDS011;58640;51.320;9.456;2023-04-24T08:37:34;1.95;;;1.80;;
70981;SDS011;58640;51.320;9.456;2023-04-24T08:39:59;2.85;;;1.85;;
70981;SDS011;58640;51.320;9.456;2023-04-24T08:42:26;2.80;;;1.80;;
70981;SDS011;58640;51.320;9.456;2023-04-24T08:44:54;4.75;;;2.40;;
70981;SDS011;58640;51.320;9.456;2023-04-24T08:47:20;4.40;;;2.15;;
70981;SDS011;58640;51.320;9.456;2023-04-24T08:49:46;2.42;;;2.22;;
70981;SDS011;58640;51.320;9.456;2023-04-24T08:52:13;4.75;;;1.95;;
70981;SDS011;58640;51.320;9.456;2023-04-24T08:54:38;2.45;;;2.03;;
70981;SDS011;58640;51.320;9.456;2023-04-24T08:57:05;2.40;;;2.03;;
70981;SDS011;58640;51.320;9.456;2023-04-24T08:59:32;4.63;;;2.10;;
70981;SDS011;58640;51.320;9.456;2023-04-24T09:01:59;2.70;;;2.10;;
70981;SDS011;58640;51.320;9.456;2023-04-24T09:04:25;2.55;;;2.05;;
70981;SDS011;58640;51.320;9.456;2023-04-24T09:06:51;2.75;;;1.85;;
70981;SDS011;58640;51.320;9.456;2023-04-24T09:09:20;2.35;;;1.67;;
70981;SDS011;58640;51.320;9.456;2023-04-24T09:11:46;3.08;;;1.70;;
70981;SDS011;58640;51.320;9.456;2023-04-24T09:14:11;2.28;;;1.70;;
70981;SDS011;58640;51.320;9.456;2023-04-24T09:16:38;2.00;;;1.73;;
70981;SDS011;58640;51.320;9.456;2023-04-24T09:19:03;2.97;;;1.80;;
70981;SDS011;58640;51.320;9.456;2023-04-24T09:21:35;1.73;;;1.60;;
70981;SDS011;58640;51.320;9.456;2023-04-24T09:24:01;2.45;;;2.08;;
70981;SDS011;58640;51.320;9.456;2023-04-24T09:26:34;3.10;;;1.90;;
70981;SDS011;58640;51.320;9.456;2023-04-24T09:29:00;2.80;;;1.88;;
70981;SDS011;58640;51.320;9.456;2023-04-24T09:31:27;1.83;;;1.73;;
70981;SDS011;58640;51.320;9.456;2023-04-24T09:33:55;2.50;;;1.80;;
70981;SDS011;58640;51.320;9.456;2023-04-24T09:36:32;2.95;;;1.90;;
70981;SDS011;58640;51.320;9.456;2023-04-24T09:39:11;2.30;;;2.10;;
70981;SDS011;58640;51.320;9.456;2023-04-24T09:41:47;2.35;;;1.90;;
70981;SDS011;58640;51.320;9.456;2023-04-24T09:49:23;1.98;;;1.88;;
70981;SDS011;58640;51.320;9.456;2023-04-24T09:51:53;2.00;;;1.90;;
70981;SDS011;58640;51.320;9.456;2023-04-24T09:54:28;3.20;;;1.65;;
70981;SDS011;58640;51.320;9.456;2023-04-24T09:56:54;2.20;;;1.80;;
70981;SDS011;58640;51.320;9.456;2023-04-24T09:59:20;1.83;;;1.48;;
70981;SDS011;58640;51.320;9.456;2023-04-24T10:01:45;1.27;;;1.17;;
70981;SDS011;58640;51.320;9.456;2023-04-24T10:04:20;3.40;;;1.63;;
70981;SDS011;58640;51.320;9.456;2023-04-24T10:06:50;1.48;;;1.23;;
70981;SDS011;58640;51.320;9.456;2023-04-24T10:09:17;2.47;;;1.40;;
70981;SDS011;58640;51.320;9.456;2023-04-24T10:11:44;1.55;;;1.20;;
70981;SDS011;58640;51.320;9.456;2023-04-24T10:14:18;0.93;;;0.93;;
70981;SDS011;58640;51.320;9.456;2023-04-24T10:16:48;2.90;;;1.38;;
70981;SDS011;58640;51.320;9.456;2023-04-24T10:19:14;1.33;;;1.23;;
70981;SDS011;58640;51.320;9.456;2023-04-24T10:21:41;4.63;;;1.20;;
70981;SDS011;58640;51.320;9.456;2023-04-24T10:24:11;1.17;;;1.15;;
70981;SDS011;58640;51.320;9.456;2023-04-24T10:26:38;0.95;;;0.95;;
70981;SDS011;58640;51.320;9.456;2023-04-24T10:29:03;1.45;;;1.20;;
70981;SDS011;58640;51.320;9.456;2023-04-24T10:31:31;0.90;;;0.85;;
70981;SDS011;58640;51.320;9.456;2023-04-24T10:33:58;2.47;;;1.48;;
70981;SDS011;58640;51.320;9.456;2023-04-24T10:36:24;1.02;;;0.90;;
70981;SDS011;58640;51.320;9.456;2023-04-24T10:38:53;0.90;;;0.85;;
70981;SDS011;58640;51.320;9.456;2023-04-24T10:41:21;0.80;;;0.80;;
70981;SDS011;58640;51.320;9.456;2023-04-24T10:44:06;2.08;;;0.80;;
70981;SDS011;58640;51.320;9.456;2023-04-24T10:46:36;2.95;;;1.23;;
70981;SDS011;58640;51.320;9.456;2023-04-24T10:49:03;0.70;;;0.70;;
70981;SDS011;58640;51.320;9.456;2023-04-24T10:51:49;1.42;;;1.13;;
70981;SDS011;58640;51.320;9.456;2023-04-24T10:59:43;1.30;;;1.20;;
70981;SDS011;58640;51.320;9.456;2023-04-24T11:02:08;1.67;;;0.80;;
70981;SDS011;58640;51.320;9.456;2023-04-24T11:04:34;2.55;;;0.80;;
70981;SDS011;58640;51.320;9.456;2023-04-24T11:07:00;0.77;;;0.57;;
70981;SDS011;58640;51.320;9.456;2023-04-24T11:09:26;0.95;;;0.85;;
70981;SDS011;58640;51.320;9.456;2023-04-24T11:12:02;0.45;;;0.45;;
70981;SDS011;58640;51.320;9.456;2023-04-24T11:17:30;1.60;;;0.68;;
70981;SDS011;58640;51.320;9.456;2023-04-24T11:20:01;0.68;;;0.40;;
70981;SDS011;58640;51.320;9.456;2023-04-24T11:22:38;0.30;;;0.30;;
70981;SDS011;58640;51.320;9.456;2023-04-24T11:25:06;0.30;;;0.30;;
70981;SDS011;58640;51.320;9.456;2023-04-24T11:27:41;0.20;;;0.20;;
70981;SDS011;58640;51.320;9.456;2023-04-24T11:30:08;0.30;;;0.22;;
70981;SDS011;58640;51.320;9.456;2023-04-24T11:32:41;0.22;;;0.22;;
70981;SDS011;58640;51.320;9.456;2023-04-24T11:35:13;0.32;;;0.32;;
70981;SDS011;58640;51.320;9.456;2023-04-24T11:37:42;0.20;;;0.20;;
70981;SDS011;58640;51.320;9.456;2023-04-24T11:40:09;0.30;;;0.30;;
70981;SDS011;58640;51.320;9.456;2023-04-24T11:42:40;9.60;;;2.00;;
70981;SDS011;58640;51.320;9.456;2023-04-24T11:45:13;10.35;;;3.25;;
70981;SDS011;58640;51.320;9.456;2023-04-24T11:47:48;1.92;;;0.75;;
70981;SDS011;58640;51.320;9.456;2023-04-24T11:50:15;0.30;;;0.28;;
70981;SDS011;58640;51.320;9.456;2023-04-24T11:52:43;0.30;;;0.30;;
70981;SDS011;58640;51.320;9.456;2023-04-24T11:57:51;0.22;;;0.22;;
70981;SDS011;58640;51.320;9.456;2023-04-24T12:02:45;0.30;;;0.30;;
70981;SDS011;58640;51.320;9.456;2023-04-24T12:05:21;0.10;;;0.10;;
70981;SDS011;58640;51.320;9.456;2023-04-24T12:07:48;1.98;;;0.38;;
70981;SDS011;58640;51.320;9.456;2023-04-24T12:10:14;0.20;;;0.20;;
70981;SDS011;58640;51.320;9.456;2023-04-24T12:12:44;0.20;;;0.20;;
70981;SDS011;58640;51.320;9.456;2023-04-24T12:15:11;0.20;;;0.20;;
70981;SDS011;58640;51.320;9.456;2023-04-24T12:17:40;0.10;;;0.10;;
70981;SDS011;58640;51.320;9.456;2023-04-24T12:20:07;0.20;;;0.20;;
70981;SDS011;58640;51.320;9.456;2023-04-24T12:25:17;1.48;;;0.20;;
70981;SDS011;58640;51.320;9.456;2023-04-24T12:27:46;1.55;;;0.20;;
70981;SDS011;58640;51.320;9.456;2023-04-24T12:30:17;0.28;;;0.28;;
70981;SDS011;58640;51.320;9.456;2023-04-24T12:32:44;0.10;;;0.10;;
70981;SDS011;58640;51.320;9.456;2023-04-24T12:35:10;0.20;;;0.20;;
70981;SDS011;58640;51.320;9.456;2023-04-24T12:37:36;1.88;;;0.10;;
70981;SDS011;58640;51.320;9.456;2023-04-24T12:40:05;0.10;;;0.10;;
70981;SDS011;58640;51.320;9.456;2023-04-24T12:42:33;0.20;;;0.20;;
70981;SDS011;58640;51.320;9.456;2023-04-24T12:45:06;2.08;;;0.20;;
70981;SDS011;58640;51.320;9.456;2023-04-24T12:47:32;0.70;;;0.20;;
70981;SDS011;58640;51.320;9.456;2023-04-24T12:49:58;0.20;;;0.20;;
70981;SDS011;58640;51.320;9.456;2023-04-24T12:52:25;0.20;;;0.20;;
70981;SDS011;58640;51.320;9.456;2023-04-24T12:54:53;0.13;;;0.13;;
70981;SDS011;58640;51.320;9.456;2023-04-24T12:57:20;0.22;;;0.15;;
70981;SDS011;58640;51.320;9.456;2023-04-24T12:59:46;0.90;;;0.20;;
70981;SDS011;58640;51.320;9.456;2023-04-24T13:02:11;0.20;;;0.20;;
70981;SDS011;58640;51.320;9.456;2023-04-24T13:04:37;0.13;;;0.13;;
70981;SDS011;58640;51.320;9.456;2023-04-24T13:07:02;0.10;;;0.10;;
70981;SDS011;58640;51.320;9.456;2023-04-24T13:09:28;0.20;;;0.20;;
70981;SDS011;58640;51.320;9.456;2023-04-24T13:11:53;0.10;;;0.10;;
70981;SDS011;58640;51.320;9.456;2023-04-24T13:14:19;0.20;;;0.20;;
70981;SDS011;58640;51.320;9.456;2023-04-24T13:16:44;0.10;;;0.10;;
70981;SDS011;58640;51.320;9.456;2023-04-24T13:19:10;0.10;;;0.10;;
70981;SDS011;58640;51.320;9.456;2023-04-24T13:21:35;0.80;;;0.20;;
70981;SDS011;58640;51.320;9.456;2023-04-24T13:24:09;0.20;;;0.20;;
70981;SDS011;58640;51.320;9.456;2023-04-24T13:26:34;0.10;;;0.10;;
70981;SDS011;58640;51.320;9.456;2023-04-24T13:29:00;0.13;;;0.13;;
70981;SDS011;58640;51.320;9.456;2023-04-24T13:31:25;0.20;;;0.20;;
70981;SDS011;58640;51.320;9.456;2023-04-24T13:33:51;0.22;;;0.22;;
70981;SDS011;58640;51.320;9.456;2023-04-24T13:36:16;0.52;;;0.50;;
70981;SDS011;58640;51.320;9.456;2023-04-24T13:38:42;0.30;;;0.30;;
70981;SDS011;58640;51.320;9.456;2023-04-24T13:41:09;0.82;;;0.30;;
70981;SDS011;58640;51.320;9.456;2023-04-24T13:43:34;0.30;;;0.30;;
70981;SDS011;58640;51.320;9.456;2023-04-24T13:46:00;0.30;;;0.30;;
70981;SDS011;58640;51.320;9.456;2023-04-24T13:48:27;0.30;;;0.30;;
70981;SDS011;58640;51.320;9.456;2023-04-24T13:50:53;0.20;;;0.20;;
70981;SDS011;58640;51.320;9.456;2023-04-24T13:53:18;0.32;;;0.32;;
70981;SDS011;58640;51.320;9.456;2023-04-24T13:55:44;0.30;;;0.30;;
70981;SDS011;58640;51.320;9.456;2023-04-24T13:58:09;0.30;;;0.30;;
70981;SDS011;58640;51.320;9.456;2023-04-24T14:00:35;0.35;;;0.35;;
70981;SDS011;58640;51.320;9.456;2023-04-24T14:03:00;0.32;;;0.32;;
70981;SDS011;58640;51.320;9.456;2023-04-24T14:05:26;0.30;;;0.30;;
70981;SDS011;58640;51.320;9.456;2023-04-24T14:07:51;0.40;;;0.40;;
70981;SDS011;58640;51.320;9.456;2023-04-24T14:10:16;0.40;;;0.40;;
70981;SDS011;58640;51.320;9.456;2023-04-24T14:12:42;0.70;;;0.70;;
70981;SDS011;58640;51.320;9.456;2023-04-24T14:15:07;0.75;;;0.75;;
70981;SDS011;58640;51.320;9.456;2023-04-24T14:17:33;2.95;;;0.75;;
70981;SDS011;58640;51.320;9.456;2023-04-24T14:19:59;6.13;;;4.57;;
70981;SDS011;58640;51.320;9.456;2023-04-24T14:22:25;0.80;;;0.80;;
70981;SDS011;58640;51.320;9.456;2023-04-24T14:24:51;0.50;;;0.50;;
70981;SDS011;58640;51.320;9.456;2023-04-24T14:27:16;0.50;;;0.50;;
70981;SDS011;58640;51.320;9.456;2023-04-24T14:29:41;0.82;;;0.60;;
70981;SDS011;58640;51.320;9.456;2023-04-24T14:32:07;0.50;;;0.50;;
70981;SDS011;58640;51.320;9.456;2023-04-24T14:34:33;0.63;;;0.60;;
70981;SDS011;58640;51.320;9.456;2023-04-24T14:36:59;1.48;;;0.93;;
70981;SDS011;58640;51.320;9.456;2023-04-24T14:39:25;0.98;;;0.98;;
70981;SDS011;58640;51.320;9.456;2023-04-24T14:41:50;1.23;;;1.13;;
70981;SDS011;58640;51.320;9.456;2023-04-24T14:44:15;0.98;;;0.98;;
70981;SDS011;58640;51.320;9.456;2023-04-24T14:46:41;1.17;;;0.98;;
70981;SDS011;58640;51.320;9.456;2023-04-24T14:49:07;2.45;;;1.65;;
70981;SDS011;58640;51.320;9.456;2023-04-24T14:51:34;2.17;;;1.40;;
70981;SDS011;58640;51.320;9.456;2023-04-24T14:54:00;1.33;;;1.10;;
70981;SDS011;58640;51.320;9.456;2023-04-24T14:56:25;1.38;;;1.13;;
70981;SDS011;58640;51.320;9.456;2023-04-24T14:58:51;3.30;;;1.60;;
70981;SDS011;58640;51.320;9.456;2023-04-24T15:01:16;1.67;;;1.52;;
70981;SDS011;58640;51.320;9.456;2023-04-24T15:03:42;2.40;;;1.60;;